MMSL 090243Z 30006KT 7SM SKC 20/14 A3000= 090244

MMSL 090145Z 32003KT 7SM SKC 22/15 A2999= 090146

MMSL 090051Z 25003KT 8SM SKC 23/15 A2998 RMK CI= 090051

MMSL 082346Z 02008KT 10SM SKC 25/15 A2996 RMK CI= 082346

MMSL 082252Z 36007KT 10SM SKC 27/16 A2995 RMK CI= 082252

MMSL 082148Z 04005KT 10SM SKC 28/16 A2995 RMK CI= 082149

MMSL 082042Z 24013KT 9SM FEW220 27/14 A2997 RMK 8/004 ISOL AC= 082043

MMSL 081946Z 25010KT 9SM FEW120 SCT220 27/14 A3000 RMK 8/034= 081947

MMSL 081849Z 20004KT 9SM FEW120 SCT220 25/16 A3002 RMK 8/034= 081851

MMSL 081745Z 00000KT 9SM SCT120 BKN220 24/16 A3005 RMK 8/032= 081746

MMSL 081653Z 14004KT 9SM SCT120 BKN220 24/16 A3006 RMK 8/032= 081653

MMSL 081546Z 03003KT 9SM SCT120 23/14 A3004 RMK 8/030 CI= 081547

MMSL 081445Z 32004KT 9SM SCT120 18/10 A3002 RMK 8/030 CI= 081446

MMSL 081350Z 32004KT 8SM FEW120 17/12 A2999 RMK 8/030 CI= 081351

MMSL 081255Z 32007KT 8SM FEW240 17/11 A2999 RMK 8/008 RTS= 081256

MMSL 080253Z 00000KT 8SM SKC 21/16 A3002= 080253

MMSL 080157Z RTD 00000KT 8SM SKC 22/16 A3001= 080158

MMSL 080040Z 08007KT 10SM SKC 23/16 A2999 RMK CI= 080040

MMSL 072340Z 34005KT 10SM SKC 25/17 A2997 RMK CI= 072340

MMSL 072240Z 23012KT 10SM SKC 26/16 A2997 RMK CI= 072240

MMSL 072140Z 21012KT 10SM SKC 26/16 A2996 RMK CI= 072140

MMSL 072040Z 22010KT 10SM SKC 26/18 A2998 RMK CI= 072040

MMSL 071940Z 14003KT 10SM SKC 26/14 A3000 RMK CI= 071940

MMSL 071840Z 12006KT 10SM FEW220 26/12 A3002 RMK 8/008= 071840

MMSL 071740Z 15002KT 10SM SCT220 26/14 A3004 RMK 8/008= 071740

MMSL 071640Z 00000KT 10SM BKN220 24/14 A3004 RMK 8/008= 071640

MMSL 071540Z 00000KT 10SM BKN220 22/14 A3003 RMK 8/008= 071540

MMSL 071440Z 31007KT 10SM BKN220 18/12 A3001 RMK 8/008 AC= 071440

MMSL 071341Z 31010KT 10SM SCT220 17/13 A3001 RMK 8/008 AC= 071341

MMSL 071300Z RTD 00000KT 7SM SCT230 22/18 A3005 RMK 8/008 AC RTS= 071301

MMSL 070240Z 00000KT 7SM SKC 23/18 A3005= 070241

MMSL 070145Z 00000KT 7SM SKC 23/18 A3004= 070146

MMSL 070044Z 22003KT 8SM SKC 24/18 A3002 RMK SC= 070044

MMSL 062351Z 16003KT 10SM SKC 24/18 A3001 RMK CU CI= 062351

MMSL 062246Z 18007KT 10SM SKC 25/18 A3000 RMK CU CI= 062247

MMSL 062151Z 18004KT 10SM SKC 25/18 A3001 RMK CU CI= 062152

MMSL 062053Z 19007KT 10SM SKC 26/17 A3002 RMK CU CI= 062053

MMSL 061951Z 19004KT 10SM SKC 26/18 A3002 RMK CU CI= 061952

MMSL 061848Z 17005KT 10SM FEW240 27/17 A3005 RMK 8/001 ISOL CU AND AC= 061848

MMSL 061748Z 15003KT 10SM FEW240 25/16 A3007 RMK 8/001 ISOL CU AND AC= 061749

MMSL 061650Z 12006KT 9SM FEW240 25/17 A3008 RMK 8/001 ISOL CU= 061650

MMSL 061548Z 06003KT 9SM FEW240 23/16 A3007 RMK 8/001 ISOL CU= 061549

MMSL 061446Z 01004KT 8SM FEW240 19/16 A3004 RMK 8/002 AC= 061447

MMSL 061351Z 33005KT 8SM FEW240 19/16 A3003 RMK 8/002 AC= 061352

MMSL 061319Z RTD 33004KT 7SM FEW240 19/16 A3003 RMK 8/002 AC RTS= 061319

MMSL 060240Z 05002KT 7SM FEW120 SCT220 22/17 A2999 RMK 8/038= 060241